Time;durP1;ratioP1;P1;durP2;ratioP2;P2;SDS_P1;SDS_P2;PMS_P1;PMS_P2;Temp;Humidity;BMP_temperature;BMP_pressure;BME280_temperature;BME280_humidity;BME280_pressure;Samples;Min_cycle;Max_cycle;Signal;HPM_P1;HPM_P2
2023/08/31 00:01:33;;;;;;;4.40;1.77;;;;;;;15.29;76.44;100123.44;5013773;28;20579;-43
2023/08/31 00:04:00;;;;;;;2.35;1.30;;;;;;;15.25;76.64;100115.88;5022058;28;20089;-44
2023/08/31 00:06:28;;;;;;;2.67;1.40;;;;;;;15.22;76.79;100111.06;5013925;28;20136;-42
2023/08/31 00:08:55;;;;;;;5.53;1.70;;;;;;;15.21;76.98;100108.69;5011936;28;20053;-42
2023/08/31 00:11:23;;;;;;;7.43;3.15;;;;;;;15.17;77.19;100108.66;5017828;28;20480;-43
2023/08/31 00:13:52;;;;;;;2.05;1.20;;;;;;;15.14;77.41;100103.84;5017308;28;20153;-42
2023/08/31 00:16:25;;;;;;;3.53;1.38;;;;;;;15.12;77.60;100097.88;5008930;28;20575;-42
2023/08/31 00:18:56;;;;;;;3.75;1.30;;;;;;;15.08;77.87;100094.28;5008765;28;20042;-43
2023/08/31 00:21:24;;;;;;;4.45;1.38;;;;;;;15.06;78.13;100093.84;5002404;28;20038;-43
2023/08/31 00:23:51;;;;;;;3.40;2.15;;;;;;;15.04;78.31;100082.31;5012694;28;20472;-42
2023/08/31 00:26:18;;;;;;;3.60;1.70;;;;;;;15.03;78.67;100079.94;5012484;28;20077;-43
2023/08/31 00:28:46;;;;;;;4.60;1.80;;;;;;;15.00;78.81;100078.72;5012189;28;20046;-42
2023/08/31 00:31:14;;;;;;;6.32;1.92;;;;;;;14.98;79.07;100078.31;5012439;28;20052;-43
2023/08/31 00:33:41;;;;;;;7.53;1.70;;;;;;;14.98;79.15;100078.31;5012712;28;20038;-42
2023/08/31 00:36:08;;;;;;;2.60;1.60;;;;;;;14.96;79.36;100074.28;5006872;28;20168;-43
2023/08/31 00:38:36;;;;;;;5.13;1.90;;;;;;;14.93;79.36;100070.31;5011826;28;20404;-43
2023/08/31 00:41:03;;;;;;;7.57;1.90;;;;;;;14.94;79.56;100066.34;5011922;28;20555;-43
2023/08/31 00:43:31;;;;;;;3.22;1.52;;;;;;;14.96;79.54;100065.94;5009342;28;20056;-43
2023/08/31 00:45:58;;;;;;;5.07;1.70;;;;;;;14.93;79.77;100048.00;5011288;28;20056;-43
2023/08/31 00:48:26;;;;;;;4.43;1.60;;;;;;;14.90;80.02;100046.03;5012540;28;20049;-48
2023/08/31 00:50:54;;;;;;;5.00;2.08;;;;;;;14.89;80.16;100046.41;4993161;28;20101;-43
2023/08/31 00:53:23;;;;;;;2.50;1.50;;;;;;;14.86;80.34;100056.34;5012088;28;20038;-43
2023/08/31 00:55:51;;;;;;;3.75;1.60;;;;;;;14.86;80.59;100052.75;5000103;28;20137;-43
2023/08/31 00:58:18;;;;;;;2.78;1.40;;;;;;;14.86;80.83;100053.56;4993295;28;20451;-43
2023/08/31 01:01:11;;;;;;;5.38;1.70;;;;;;;14.86;80.88;100055.53;5011114;28;20140;-43
2023/08/31 01:04:08;;;;;;;4.72;1.88;;;;;;;14.84;80.92;100055.94;4990919;28;20081;-43
2023/08/31 01:06:46;;;;;;;4.20;1.80;;;;;;;14.84;81.04;100055.94;4977609;28;20043;-42
2023/08/31 01:09:35;;;;;;;2.45;1.92;;;;;;;14.85;81.30;100051.16;4986253;28;20042;-42
2023/08/31 01:12:12;;;;;;;2.03;1.23;;;;;;;14.85;81.35;100051.94;4981719;28;20042;-43
2023/08/31 01:15:11;;;;;;;3.97;1.80;;;;;;;14.86;81.32;100047.19;4994765;28;20054;-43
2023/08/31 01:17:44;;;;;;;4.10;1.55;;;;;;;14.87;81.53;100043.22;4979899;28;20081;-43
2023/08/31 01:20:17;;;;;;;4.07;1.23;;;;;;;14.85;81.39;100045.59;4975092;28;20153;-43
2023/08/31 01:22:55;;;;;;;2.72;1.20;;;;;;;14.83;81.29;100048.75;4992306;28;20430;-43
2023/08/31 01:25:23;;;;;;;1.35;1.15;;;;;;;14.83;81.33;100054.34;4990827;28;20077;-43
2023/08/31 01:27:51;;;;;;;3.50;1.40;;;;;;;14.83;81.22;100048.75;4992092;28;20531;-42
2023/08/31 01:30:18;;;;;;;1.13;0.70;;;;;;;14.84;81.15;100055.94;4988837;28;20089;-43
2023/08/31 01:32:45;;;;;;;3.40;1.15;;;;;;;14.84;80.80;100053.16;4992109;28;20141;-44
2023/08/31 01:35:16;;;;;;;1.73;0.88;;;;;;;14.78;80.19;100051.91;4992260;28;20381;-43
2023/08/31 01:37:51;;;;;;;2.08;0.98;;;;;;;14.74;79.87;100045.53;4992294;28;20487;-43
2023/08/31 01:40:43;;;;;;;3.90;0.88;;;;;;;14.73;79.35;100043.94;4990887;28;20062;-43
2023/08/31 01:43:11;;;;;;;1.75;0.95;;;;;;;14.70;78.70;100039.13;4985807;28;20132;-43
2023/08/31 01:45:40;;;;;;;4.30;0.80;;;;;;;14.70;78.42;100033.56;4982438;28;20045;-43
2023/08/31 01:48:09;;;;;;;3.38;0.80;;;;;;;14.69;78.16;100037.56;4994522;28;20046;-43
2023/08/31 01:50:36;;;;;;;1.80;0.98;;;;;;;14.70;77.97;100036.34;4990246;28;20133;-44
2023/08/31 01:53:06;;;;;;;2.53;0.85;;;;;;;14.69;77.86;100026.41;4991330;28;20546;-43
2023/08/31 01:55:33;;;;;;;0.93;0.63;;;;;;;14.68;77.96;100015.63;4991968;28;20097;-43
2023/08/31 01:58:01;;;;;;;2.28;0.80;;;;;;;14.65;77.79;100006.06;4990445;28;20061;-44
2023/08/31 02:00:28;;;;;;;1.27;0.60;;;;;;;14.66;77.94;100016.03;4987424;28;20053;-43
2023/08/31 02:02:55;;;;;;;4.70;1.08;;;;;;;14.66;78.10;100007.69;5005117;28;20042;-43
2023/08/31 02:05:23;;;;;;;2.78;0.77;;;;;;;14.63;78.01;100000.91;5013601;28;20043;-44
2023/08/31 02:07:51;;;;;;;2.10;1.10;;;;;;;14.63;78.16;100005.69;5010667;28;20053;-45
2023/08/31 02:10:21;;;;;;;2.88;0.95;;;;;;;14.61;78.16;100014.41;5007818;28;20057;-49
2023/08/31 02:12:48;;;;;;;2.30;0.90;;;;;;;14.59;78.30;100004.84;4977458;28;20515;-44
2023/08/31 02:15:15;;;;;;;1.30;1.20;;;;;;;14.55;78.50;99998.47;5023760;28;20392;-43
2023/08/31 02:17:43;;;;;;;2.03;0.63;;;;;;;14.51;78.36;99986.50;5011882;28;20034;-44
2023/08/31 02:20:11;;;;;;;1.63;0.57;;;;;;;14.44;78.57;99987.28;5004591;28;20049;-43
2023/08/31 02:22:38;;;;;;;2.92;0.80;;;;;;;14.40;78.62;99982.88;5008966;28;20050;-45
2023/08/31 02:25:05;;;;;;;2.15;0.88;;;;;;;14.35;78.74;99986.81;5008669;28;20062;-44
2023/08/31 02:27:32;;;;;;;1.13;0.75;;;;;;;14.33;78.55;99993.94;5010937;28;20077;-44
2023/08/31 02:30:00;;;;;;;1.58;0.88;;;;;;;14.29;78.52;99990.34;5011258;28;20108;-43
2023/08/31 02:32:27;;;;;;;1.42;1.13;;;;;;;14.29;78.37;99987.53;5011591;28;20098;-43
2023/08/31 02:34:54;;;;;;;0.75;0.35;;;;;;;14.25;78.27;99984.72;5010822;28;20046;-44
2023/08/31 02:37:21;;;;;;;3.95;0.75;;;;;;;14.24;78.24;99987.91;5011159;28;20137;-44
2023/08/31 02:39:49;;;;;;;1.58;0.88;;;;;;;14.21;78.10;99983.94;5006750;28;20140;-43
2023/08/31 02:42:16;;;;;;;3.75;0.80;;;;;;;14.19;77.53;99979.94;5009962;28;20053;-43
2023/08/31 02:44:43;;;;;;;1.27;0.80;;;;;;;14.14;77.35;99972.72;5008861;28;20156;-46
2023/08/31 02:47:11;;;;;;;2.40;0.82;;;;;;;14.16;77.05;99969.56;4984085;28;20126;-44
2023/08/31 02:49:38;;;;;;;2.15;0.68;;;;;;;14.16;76.95;99975.94;5010054;28;20471;-44
2023/08/31 02:52:08;;;;;;;2.78;0.75;;;;;;;14.14;77.16;99961.59;5002571;28;20137;-43
2023/08/31 02:54:35;;;;;;;0.85;0.75;;;;;;;14.17;77.07;99946.09;5010940;28;20049;-43
2023/08/31 02:57:02;;;;;;;2.72;1.90;;;;;;;14.15;77.00;99948.47;4979776;28;20042;-44
2023/08/31 02:59:30;;;;;;;1.33;0.77;;;;;;;14.13;77.22;99936.94;4982094;28;20041;-47
2023/08/31 03:01:57;;;;;;;2.40;1.00;;;;;;;14.09;77.22;99906.28;5044815;23;20094;-47
2023/08/31 03:04:24;;;;;;;5.90;1.25;;;;;;;14.08;77.29;99901.13;5010918;28;20499;-43
2023/08/31 03:06:52;;;;;;;5.07;1.10;;;;;;;14.06;77.25;99895.94;5016538;28;20049;-44
2023/08/31 03:09:20;;;;;;;3.95;1.20;;;;;;;14.06;77.21;99887.56;5001034;28;20717;-43
2023/08/31 03:11:47;;;;;;;4.20;0.73;;;;;;;14.07;77.53;99885.59;5017114;28;20042;-44
2023/08/31 03:14:14;;;;;;;2.53;0.65;;;;;;;14.07;77.62;99888.38;5013767;28;20053;-45
2023/08/31 03:16:41;;;;;;;3.80;1.27;;;;;;;14.07;77.59;99894.75;5014718;28;20543;-43
2023/08/31 03:19:09;;;;;;;6.05;1.42;;;;;;;14.02;77.55;99904.28;5015197;28;20046;-45
2023/08/31 03:21:36;;;;;;;1.92;1.05;;;;;;;14.01;77.74;99918.56;5016499;28;20042;-44
2023/08/31 03:24:03;;;;;;;4.30;0.90;;;;;;;13.96;77.80;99928.09;5013790;28;20050;-43
2023/08/31 03:26:34;;;;;;;2.33;1.08;;;;;;;13.93;78.04;99934.41;5013424;28;20038;-43
2023/08/31 03:29:01;;;;;;;2.33;0.85;;;;;;;13.94;77.95;99936.03;5022441;28;20073;-43
2023/08/31 03:31:30;;;;;;;1.92;1.00;;;;;;;13.92;78.21;99949.53;5010294;28;20475;-42
2023/08/31 03:33:58;;;;;;;3.33;1.40;;;;;;;13.92;78.07;99946.75;5014947;28;20128;-43
2023/08/31 03:36:25;;;;;;;3.13;1.10;;;;;;;13.93;78.10;99944.75;5013036;28;20084;-44
2023/08/31 03:38:52;;;;;;;1.92;1.10;;;;;;;13.94;78.04;99946.34;5008863;28;20038;-47
2023/08/31 03:41:21;;;;;;;3.35;0.98;;;;;;;13.97;77.96;99935.25;5003652;28;20498;-44
2023/08/31 03:43:48;;;;;;;4.63;1.27;;;;;;;14.00;78.05;99922.56;5013084;28;20033;-43
2023/08/31 03:46:15;;;;;;;2.40;1.33;;;;;;;14.01;78.09;99927.72;5011696;28;20072;-44
2023/08/31 03:48:43;;;;;;;1.70;1.20;;;;;;;14.04;78.16;99924.16;5011890;28;20056;-44
2023/08/31 03:51:10;;;;;;;2.75;1.13;;;;;;;14.07;78.24;99924.56;5009705;28;20444;-43
2023/08/31 03:53:37;;;;;;;3.28;1.48;;;;;;;14.08;78.47;99923.38;5011735;28;20060;-43
2023/08/31 03:56:04;;;;;;;6.47;0.93;;;;;;;14.07;78.33;99921.78;5011890;28;20084;-43
2023/08/31 03:58:31;;;;;;;1.52;1.10;;;;;;;14.04;78.24;99918.59;5011231;28;20049;-43
2023/08/31 04:00:59;;;;;;;3.05;1.13;;;;;;;14.04;78.18;99917.78;5013094;28;20070;-43
2023/08/31 04:03:26;;;;;;;2.95;1.05;;;;;;;14.03;78.38;99919.75;5013684;28;20446;-44
2023/08/31 04:05:56;;;;;;;3.70;1.20;;;;;;;14.03;78.57;99905.84;5012088;28;20137;-43
2023/08/31 04:08:23;;;;;;;2.58;0.65;;;;;;;14.04;78.46;99903.88;5012591;28;20052;-43
2023/08/31 04:10:51;;;;;;;1.80;0.60;;;;;;;13.99;78.38;99902.25;5013241;28;20045;-46
2023/08/31 04:13:18;;;;;;;7.80;1.05;;;;;;;13.93;78.17;99905.78;5012905;28;20053;-44
2023/08/31 04:15:45;;;;;;;4.07;1.23;;;;;;;13.90;78.34;99904.59;5011858;28;20053;-45
2023/08/31 04:18:12;;;;;;;4.78;2.83;;;;;;;13.90;78.48;99899.00;5013181;28;20499;-44
2023/08/31 04:20:50;;;;;;;4.22;1.30;;;;;;;13.89;78.37;99891.88;5012999;28;20038;-43
2023/08/31 04:23:19;;;;;;;4.68;0.88;;;;;;;13.89;78.44;99894.66;5014924;28;20044;-46
2023/08/31 04:25:47;;;;;;;2.47;0.98;;;;;;;13.90;78.39;99890.66;5010610;28;20092;-44
2023/08/31 04:28:14;;;;;;;10.00;1.65;;;;;;;13.91;78.51;99889.50;5009825;28;20479;-44
2023/08/31 04:30:41;;;;;;;2.85;1.55;;;;;;;13.90;78.28;99885.09;5012383;28;20395;-43
2023/08/31 04:33:09;;;;;;;4.78;1.05;;;;;;;13.90;78.17;99901.81;5006350;28;20095;-44
2023/08/31 04:35:37;;;;;;;3.95;1.27;;;;;;;13.87;78.16;99893.44;5010982;28;20132;-44
2023/08/31 04:38:04;;;;;;;3.78;1.10;;;;;;;13.85;78.18;99899.38;5013143;28;20495;-44
2023/08/31 04:40:31;;;;;;;3.10;0.95;;;;;;;13.83;78.25;99889.81;5005607;28;20052;-44
2023/08/31 04:42:57;;;;;;;1.13;0.82;;;;;;;13.80;78.15;99894.19;5011056;28;20054;-45
2023/08/31 04:45:24;;;;;;;3.50;1.17;;;;;;;13.80;78.04;99894.19;5009677;28;20145;-44
2023/08/31 04:47:51;;;;;;;3.25;1.00;;;;;;;13.80;78.26;99896.97;5014106;28;20054;-46
2023/08/31 04:50:18;;;;;;;2.95;1.13;;;;;;;13.79;78.35;99889.78;5011463;28;20038;-46
2023/08/31 04:52:45;;;;;;;5.15;1.17;;;;;;;13.79;78.15;99895.34;5018427;28;20046;-45
2023/08/31 04:55:13;;;;;;;2.38;1.10;;;;;;;13.77;78.54;99891.38;5013367;28;20077;-44
2023/08/31 04:57:40;;;;;;;4.50;1.25;;;;;;;13.77;78.40;99883.81;5009203;28;20064;-44
2023/08/31 05:00:11;;;;;;;3.78;1.20;;;;;;;13.75;78.57;99894.56;5008625;28;20145;-51
2023/08/31 05:02:39;;;;;;;3.20;0.80;;;;;;;13.75;78.67;99889.00;5010216;28;20761;-43
2023/08/31 05:05:07;;;;;;;4.63;1.33;;;;;;;13.75;78.90;99888.19;5010963;28;20034;-43
2023/08/31 05:07:34;;;;;;;3.20;0.98;;;;;;;13.75;78.76;99889.00;5013514;28;20069;-45
2023/08/31 05:10:00;;;;;;;2.45;1.00;;;;;;;13.74;78.97;99887.38;5007585;28;20042;-44
2023/08/31 05:12:27;;;;;;;2.80;1.13;;;;;;;13.75;79.02;99882.63;5011738;28;20882;-43
2023/08/31 05:14:54;;;;;;;6.72;1.42;;;;;;;13.74;79.34;99881.03;5012294;28;20057;-44
2023/08/31 05:17:21;;;;;;;3.15;1.52;;;;;;;13.73;79.35;99879.44;5010513;28;20368;-44
2023/08/31 05:19:50;;;;;;;4.05;1.05;;;;;;;13.72;79.29;99875.03;5010847;28;20557;-44
2023/08/31 05:22:17;;;;;;;6.47;1.30;;;;;;;13.70;79.36;99881.00;5010894;28;20075;-44
2023/08/31 05:24:44;;;;;;;3.50;1.35;;;;;;;13.70;79.35;99875.44;5011096;28;20046;-44
2023/08/31 05:27:11;;;;;;;5.75;3.08;;;;;;;13.68;79.29;99872.25;5008037;28;20420;-44
2023/08/31 05:29:38;;;;;;;4.65;1.60;;;;;;;13.68;79.32;99880.59;5011806;28;20057;-45
2023/08/31 05:32:06;;;;;;;5.60;1.52;;;;;;;13.69;79.40;99884.16;5010985;28;20050;-44
2023/08/31 05:34:37;;;;;;;4.90;2.10;;;;;;;13.69;79.49;99871.06;5011025;28;20140;-44
2023/08/31 05:37:05;;;;;;;5.90;1.67;;;;;;;13.67;79.45;99876.22;5011411;28;20486;-44
2023/08/31 05:39:31;;;;;;;2.65;1.00;;;;;;;13.66;79.62;99868.28;5010434;28;20518;-43
2023/08/31 05:41:58;;;;;;;3.50;1.20;;;;;;;13.65;79.76;99875.81;5011209;28;20053;-44
2023/08/31 05:44:26;;;;;;;4.45;1.10;;;;;;;13.66;79.60;99874.59;5011253;28;20570;-45
2023/08/31 05:46:53;;;;;;;4.75;1.30;;;;;;;13.66;79.79;99869.03;5003883;28;20049;-44
2023/08/31 05:49:20;;;;;;;3.00;1.10;;;;;;;13.66;80.04;99868.28;5010796;28;20046;-46
2023/08/31 05:51:47;;;;;;;4.82;1.10;;;;;;;13.65;79.89;99867.47;5007111;28;20145;-43
2023/08/31 05:54:14;;;;;;;3.55;0.95;;;;;;;13.62;80.00;99868.22;5013204;28;20365;-43
2023/08/31 05:56:41;;;;;;;3.50;0.75;;;;;;;13.61;80.33;99860.28;5010458;28;20062;-44
2023/08/31 05:59:08;;;;;;;2.25;0.98;;;;;;;13.60;80.37;99859.50;5009400;28;20511;-45
2023/08/31 06:01:36;;;;;;;3.80;1.30;;;;;;;13.60;80.65;99864.25;5013887;28;20058;-43
2023/08/31 06:04:03;;;;;;;4.38;1.05;;;;;;;13.58;80.59;99867.41;5007119;28;20038;-46
2023/08/31 06:06:32;;;;;;;8.23;1.13;;;;;;;13.58;80.86;99872.19;5012267;28;20058;-45
2023/08/31 06:08:59;;;;;;;2.47;0.90;;;;;;;13.59;80.92;99869.00;4993481;28;20546;-44
2023/08/31 06:11:26;;;;;;;2.03;0.88;;;;;;;13.62;80.70;99876.56;5010138;28;20399;-44
2023/08/31 06:13:53;;;;;;;6.22;1.23;;;;;;;13.63;81.16;99874.59;5009994;28;20085;-45
2023/08/31 06:16:20;;;;;;;4.35;1.00;;;;;;;13.63;81.14;99866.25;5014414;28;20050;-44
2023/08/31 06:18:47;;;;;;;1.88;0.55;;;;;;;13.61;81.43;99855.50;5010605;28;20160;-45
2023/08/31 06:21:15;;;;;;;3.60;0.82;;;;;;;13.63;81.12;99853.16;5010316;28;20064;-46
2023/08/31 06:23:42;;;;;;;1.70;0.90;;;;;;;13.63;81.44;99847.59;5008123;28;20053;-45
2023/08/31 06:26:09;;;;;;;2.53;0.70;;;;;;;13.63;81.43;99850.38;5011289;28;20045;-45
2023/08/31 06:28:36;;;;;;;0.60;0.60;;;;;;;13.64;81.73;99860.28;5010270;28;20057;-44
2023/08/31 06:31:04;;;;;;;2.58;0.68;;;;;;;13.65;81.81;99855.53;5016245;28;20093;-44
2023/08/31 06:33:30;;;;;;;7.72;0.73;;;;;;;13.67;81.64;99858.72;5011505;28;20396;-44
2023/08/31 06:35:57;;;;;;;0.70;0.60;;;;;;;13.66;81.95;99852.34;5015799;28;20679;-47
2023/08/31 06:38:25;;;;;;;4.07;0.82;;;;;;;13.68;81.89;99852.78;5008756;28;20046;-48
2023/08/31 06:40:58;;;;;;;1.30;0.65;;;;;;;13.68;82.03;99854.75;5012879;28;20066;-44
2023/08/31 06:43:28;;;;;;;1.25;0.47;;;;;;;13.67;82.05;99853.16;5008668;28;20499;-45
2023/08/31 06:45:55;;;;;;;3.75;2.55;;;;;;;13.66;82.18;99857.91;5014831;28;20058;-46
2023/08/31 06:48:33;;;;;;;2.85;0.60;;;;;;;13.67;82.17;99856.75;5011484;28;20125;-44
2023/08/31 06:51:00;;;;;;;0.63;0.63;;;;;;;13.67;82.37;99847.59;5014755;28;20045;-44
2023/08/31 06:53:27;;;;;;;1.20;0.68;;;;;;;13.66;82.47;99851.59;5027055;28;20092;-47
2023/08/31 06:55:55;;;;;;;2.78;0.60;;;;;;;13.66;82.71;99855.13;5014637;28;20058;-45
2023/08/31 06:58:21;;;;;;;0.80;0.40;;;;;;;13.68;82.38;99846.41;5020622;28;20054;-44
2023/08/31 07:00:48;;;;;;;2.40;0.50;;;;;;;13.68;82.58;99838.88;5014362;28;20561;-45
2023/08/31 07:03:15;;;;;;;0.70;0.32;;;;;;;13.68;82.61;99835.28;5012871;28;20129;-45
2023/08/31 07:05:43;;;;;;;0.75;0.38;;;;;;;13.67;83.10;99831.72;5013990;28;20045;-45
2023/08/31 07:08:10;;;;;;;1.98;0.40;;;;;;;13.65;83.06;99822.97;5017192;28;20034;-45
2023/08/31 07:10:37;;;;;;;2.83;0.70;;;;;;;13.64;83.14;99834.47;5011871;28;20057;-43
2023/08/31 07:13:05;;;;;;;1.55;0.35;;;;;;;13.61;83.63;99844.38;5011118;28;20403;-45
2023/08/31 07:15:32;;;;;;;2.08;0.60;;;;;;;13.61;83.54;99855.50;5014283;28;20574;-46
2023/08/31 07:17:59;;;;;;;0.30;0.30;;;;;;;13.61;83.93;99869.41;5011390;28;20048;-44
2023/08/31 07:20:26;;;;;;;0.82;0.45;;;;;;;13.62;84.07;99865.44;5014187;28;20069;-45
2023/08/31 07:22:53;;;;;;;0.73;0.40;;;;;;;13.63;83.95;99861.50;5012024;28;20033;-44
2023/08/31 07:25:19;;;;;;;1.48;0.50;;;;;;;13.62;84.18;99873.00;5007003;28;20048;-53
2023/08/31 07:27:46;;;;;;;0.95;0.60;;;;;;;13.62;84.23;99862.66;5017322;28;20056;-48
2023/08/31 07:30:13;;;;;;;0.82;0.68;;;;;;;13.59;84.52;99857.88;5013892;28;20046;-47
2023/08/31 07:32:40;;;;;;;2.55;1.40;;;;;;;13.60;84.73;99853.94;5011604;28;20050;-46
2023/08/31 07:35:07;;;;;;;1.08;0.70;;;;;;;13.58;84.87;99838.81;5013859;28;20045;-46
2023/08/31 07:37:35;;;;;;;5.70;0.80;;;;;;;13.56;84.94;99835.59;5014297;28;20061;-45
2023/08/31 07:40:02;;;;;;;0.57;0.43;;;;;;;13.56;85.05;99832.81;5011854;28;20522;-44
2023/08/31 07:42:29;;;;;;;1.75;0.43;;;;;;;13.56;85.30;99839.19;5012835;28;20077;-45
2023/08/31 07:44:56;;;;;;;0.88;0.40;;;;;;;13.57;85.19;99837.19;5013541;28;20104;-45
2023/08/31 07:47:23;;;;;;;2.13;0.65;;;;;;;13.62;85.38;99842.41;5013816;28;20117;-44
2023/08/31 07:49:49;;;;;;;1.50;0.50;;;;;;;13.65;85.22;99850.78;5013094;28;20049;-44
2023/08/31 07:52:16;;;;;;;1.05;0.50;;;;;;;13.65;85.72;99849.97;5011321;28;20133;-45
2023/08/31 07:54:43;;;;;;;1.15;0.70;;;;;;;13.66;85.80;99849.56;5012612;28;20042;-45
2023/08/31 07:57:11;;;;;;;1.20;0.47;;;;;;;13.68;85.95;99855.56;5013408;28;20407;-48
2023/08/31 07:59:39;;;;;;;3.47;0.80;;;;;;;13.69;85.82;99851.59;5013569;28;20046;-44
2023/08/31 08:02:06;;;;;;;2.92;0.70;;;;;;;13.69;85.97;99857.16;5024149;28;20526;-44
2023/08/31 08:04:33;;;;;;;2.08;0.52;;;;;;;13.70;86.40;99857.94;5013111;28;20054;-44
2023/08/31 08:07:00;;;;;;;2.47;0.52;;;;;;;13.72;86.51;99842.47;5013394;28;20496;-44
2023/08/31 08:09:28;;;;;;;2.13;0.60;;;;;;;13.80;86.47;99848.88;5010980;28;20050;-44
2023/08/31 08:11:56;;;;;;;2.38;0.82;;;;;;;13.88;86.66;99842.97;5013271;28;20046;-45
2023/08/31 08:14:22;;;;;;;2.15;0.93;;;;;;;13.93;86.62;99839.81;5011586;28;20054;-44
2023/08/31 08:16:49;;;;;;;2.00;0.68;;;;;;;13.99;86.49;99848.59;5013725;28;20069;-45
2023/08/31 08:19:25;;;;;;;1.27;0.85;;;;;;;13.99;86.71;99841.03;5013112;28;20565;-44
2023/08/31 08:21:52;;;;;;;2.33;0.80;;;;;;;14.00;86.94;99850.97;5012760;28;20042;-45
2023/08/31 08:24:19;;;;;;;4.25;0.88;;;;;;;14.01;87.12;99847.00;5010373;28;20042;-45
2023/08/31 08:26:46;;;;;;;2.55;1.05;;;;;;;14.06;87.13;99847.84;5012767;28;20480;-44
2023/08/31 08:29:13;;;;;;;2.58;1.00;;;;;;;14.16;87.28;99847.09;5012932;28;20092;-44
2023/08/31 08:31:40;;;;;;;1.63;0.68;;;;;;;14.33;87.10;99840.81;5009797;28;20054;-45
2023/08/31 08:34:07;;;;;;;1.50;0.50;;;;;;;14.54;86.76;99835.31;5013172;28;20042;-44
2023/08/31 08:36:33;;;;;;;3.30;0.68;;;;;;;14.74;86.44;99839.34;5012632;28;20064;-44
2023/08/31 08:39:00;;;;;;;0.47;0.40;;;;;;;14.93;86.12;99840.97;5009989;28;20044;-46
2023/08/31 08:41:32;;;;;;;1.52;0.40;;;;;;;14.97;85.84;99842.56;5005468;28;20128;-44
2023/08/31 08:44:03;;;;;;;1.70;0.50;;;;;;;14.91;85.92;99833.00;5011546;28;20037;-46
2023/08/31 08:46:32;;;;;;;1.35;0.22;;;;;;;14.89;86.02;99843.75;5008096;28;20384;-45
2023/08/31 08:49:02;;;;;;;0.80;0.40;;;;;;;14.85;86.17;99833.78;5012041;28;20074;-46
2023/08/31 08:51:31;;;;;;;0.85;0.30;;;;;;;14.83;86.23;99834.19;5012982;28;20065;-49
2023/08/31 08:54:00;;;;;;;1.02;0.20;;;;;;;14.81;86.48;99839.34;5012454;28;20144;-45
2023/08/31 08:56:27;;;;;;;1.27;0.85;;;;;;;14.82;86.64;99840.97;5010449;28;20056;-46
2023/08/31 08:58:54;;;;;;;1.42;0.40;;;;;;;14.83;86.49;99841.72;5012344;28;20479;-46
2023/08/31 09:01:23;;;;;;;1.73;0.30;;;;;;;14.85;86.54;99840.16;5011446;28;20065;-44
2023/08/31 09:03:50;;;;;;;1.98;0.50;;;;;;;14.89;86.55;99835.38;5010024;28;20119;-45
2023/08/31 09:06:18;;;;;;;1.40;0.30;;;;;;;14.94;86.58;99836.97;5011136;28;20407;-44
2023/08/31 09:08:53;;;;;;;0.20;0.20;;;;;;;15.00;86.41;99840.97;5012837;28;20046;-45
2023/08/31 09:11:24;;;;;;;0.47;0.25;;;;;;;15.06;86.40;99853.34;5010744;28;20052;-47
2023/08/31 09:13:51;;;;;;;0.93;0.50;;;;;;;15.12;86.04;99852.53;5010151;28;20050;-44
2023/08/31 09:16:29;;;;;;;1.38;0.50;;;;;;;15.14;86.02;99852.16;5011740;28;20046;-46
2023/08/31 09:18:59;;;;;;;1.08;0.55;;;;;;;15.10;86.10;99852.13;5011981;28;20137;-44
2023/08/31 09:21:36;;;;;;;2.33;0.43;;;;;;;15.08;86.20;99843.38;5011874;28;20053;-44
2023/08/31 09:24:13;;;;;;;1.95;0.47;;;;;;;15.09;86.10;99849.75;5010845;28;20042;-45
2023/08/31 09:26:44;;;;;;;1.98;0.93;;;;;;;15.12;86.14;99846.94;5012556;28;20050;-44
2023/08/31 09:29:12;;;;;;;2.63;0.40;;;;;;;15.13;86.21;99840.19;5009120;28;20119;-50
2023/08/31 09:31:46;;;;;;;2.78;0.88;;;;;;;15.13;85.95;99844.97;5003531;28;20376;-53
2023/08/31 09:34:18;;;;;;;0.50;0.50;;;;;;;15.16;86.03;99850.56;5004346;28;20049;-45
2023/08/31 09:36:45;;;;;;;1.85;0.47;;;;;;;15.24;86.11;99842.97;5009633;28;20411;-45
2023/08/31 09:39:14;;;;;;;0.50;0.50;;;;;;;15.35;86.11;99837.41;4998820;28;20044;-45
2023/08/31 09:41:54;;;;;;;2.10;0.55;;;;;;;15.38;85.84;99839.41;5012493;28;20150;-44
2023/08/31 09:44:22;;;;;;;2.17;0.82;;;;;;;15.46;85.75;99829.88;5012057;28;20057;-44
2023/08/31 09:46:49;;;;;;;2.03;0.75;;;;;;;15.52;85.66;99843.00;5009391;28;20037;-43
2023/08/31 09:49:17;;;;;;;2.53;2.10;;;;;;;15.64;85.68;99844.59;5011403;28;20495;-44
2023/08/31 09:51:46;;;;;;;5.95;1.15;;;;;;;15.74;85.51;99843.75;5011246;28;20050;-44
2023/08/31 09:54:15;;;;;;;1.75;0.60;;;;;;;15.84;85.33;99843.75;5010505;28;20096;-45
2023/08/31 09:56:43;;;;;;;2.53;1.00;;;;;;;15.95;85.00;99840.91;5010437;28;20515;-45
2023/08/31 09:59:12;;;;;;;3.00;1.20;;;;;;;15.99;84.94;99838.13;5011990;28;20057;-44
2023/08/31 10:01:46;;;;;;;2.50;0.88;;;;;;;16.00;84.76;99832.13;5010830;28;20413;-44
2023/08/31 10:04:13;;;;;;;3.17;0.65;;;;;;;16.00;84.55;99826.53;5011257;28;20049;-44
2023/08/31 10:06:41;;;;;;;1.20;0.68;;;;;;;16.04;84.63;99832.94;5010086;28;20064;-44
2023/08/31 10:09:11;;;;;;;1.45;0.50;;;;;;;16.13;84.41;99826.88;5010119;28;20041;-45
2023/08/31 10:11:40;;;;;;;8.38;0.50;;;;;;;16.20;84.19;99833.25;5012177;28;20384;-44
2023/08/31 10:14:12;;;;;;;1.85;0.40;;;;;;;16.26;83.99;99837.22;5014691;28;20567;-46
2023/08/31 10:16:40;;;;;;;0.57;0.45;;;;;;;16.23;83.67;99829.63;5013865;28;20048;-44
2023/08/31 10:19:08;;;;;;;0.52;0.30;;;;;;;16.18;83.90;99838.44;5014818;28;20487;-44
2023/08/31 10:21:35;;;;;;;1.50;0.47;;;;;;;16.15;83.93;99825.28;5014868;28;20081;-45
2023/08/31 10:24:03;;;;;;;1.70;0.47;;;;;;;16.12;84.13;99828.09;5013295;28;20046;-45
2023/08/31 10:26:31;;;;;;;3.60;0.88;;;;;;;16.07;84.07;99823.72;5012881;28;20033;-45
2023/08/31 10:29:00;;;;;;;2.03;0.47;;;;;;;16.03;84.16;99817.38;5010316;28;20054;-44
2023/08/31 10:31:31;;;;;;;1.85;0.63;;;;;;;16.04;84.24;99826.53;5014734;28;20080;-47
2023/08/31 10:34:00;;;;;;;1.65;0.35;;;;;;;16.08;84.25;99822.53;5015028;28;20128;-44
2023/08/31 10:36:40;;;;;;;1.67;0.30;;;;;;;16.14;84.27;99829.28;5014282;28;20050;-52
2023/08/31 10:39:21;;;;;;;0.45;0.40;;;;;;;16.21;84.07;99825.66;5014033;28;20054;-44
2023/08/31 10:41:56;;;;;;;2.72;1.55;;;;;;;16.27;83.88;99832.44;5014757;28;20419;-45
2023/08/31 10:44:25;;;;;;;2.47;0.82;;;;;;;16.33;84.00;99828.03;5013843;28;20038;-45
2023/08/31 10:46:53;;;;;;;3.50;0.73;;;;;;;16.42;84.03;99843.13;5010088;28;20462;-45
2023/08/31 10:49:22;;;;;;;6.22;0.60;;;;;;;16.53;83.90;99834.72;5010577;28;20050;-45
2023/08/31 10:51:57;;;;;;;5.88;1.10;;;;;;;16.57;83.47;99835.50;5016147;28;20053;-46
2023/08/31 10:54:25;;;;;;;2.45;1.10;;;;;;;16.60;83.42;99825.53;5013554;28;20132;-44
2023/08/31 10:57:00;;;;;;;1.63;0.77;;;;;;;16.61;83.28;99841.06;5012719;28;20057;-46
2023/08/31 10:59:53;;;;;;;1.15;0.70;;;;;;;16.60;83.27;99825.53;5014373;28;20046;-44
2023/08/31 11:02:47;;;;;;;1.25;0.50;;;;;;;16.56;83.36;99830.31;5014046;28;20051;-45
2023/08/31 11:05:16;;;;;;;3.90;1.10;;;;;;;16.54;83.36;99827.94;5010210;28;20077;-47
2023/08/31 11:07:45;;;;;;;4.70;0.80;;;;;;;16.47;83.71;99827.94;5013668;28;20045;-45
2023/08/31 11:10:26;;;;;;;1.95;0.65;;;;;;;16.46;83.88;99826.34;5014301;28;20399;-47
2023/08/31 11:12:58;;;;;;;2.47;0.93;;;;;;;16.43;83.88;99822.38;5012503;28;20046;-44
2023/08/31 11:15:27;;;;;;;0.90;0.45;;;;;;;16.42;84.06;99826.38;5013193;28;20076;-45
2023/08/31 11:17:55;;;;;;;4.97;0.90;;;;;;;16.41;84.13;99835.94;5013543;28;20120;-44
2023/08/31 11:20:27;;;;;;;0.88;0.38;;;;;;;16.37;84.09;99829.59;5012381;28;20137;-45
2023/08/31 11:22:55;;;;;;;4.10;0.70;;;;;;;16.35;84.18;99826.41;5013276;28;20046;-44
2023/08/31 11:25:24;;;;;;;3.40;1.15;;;;;;;16.31;84.34;99825.63;4991488;28;20056;-50
2023/08/31 11:27:55;;;;;;;0.85;0.30;;;;;;;16.33;84.39;99836.41;5013804;28;20069;-44
2023/08/31 11:30:22;;;;;;;1.42;0.50;;;;;;;16.27;84.47;99830.44;5013891;28;20046;-44
2023/08/31 11:32:52;;;;;;;1.17;0.30;;;;;;;16.23;84.91;99831.66;5014527;28;20049;-45
2023/08/31 11:35:23;;;;;;;0.75;0.50;;;;;;;16.14;85.14;99829.28;5013242;28;20046;-44
2023/08/31 11:37:51;;;;;;;3.88;0.75;;;;;;;16.15;85.37;99822.50;5014015;28;20056;-46
2023/08/31 11:40:19;;;;;;;8.95;1.65;;;;;;;16.24;85.61;99831.25;5011896;28;20458;-46